createdAt,value
2018-08-14T07:00:26.654Z,53
2018-08-14T07:03:26.647Z,47
2018-08-14T07:06:26.640Z,56
2018-08-14T07:09:26.769Z,47
2018-08-14T07:12:26.784Z,56
2018-08-14T07:15:26.733Z,53
2018-08-14T07:18:26.829Z,54
2018-08-14T07:21:26.736Z,44
2018-08-14T07:24:26.793Z,47
2018-08-14T07:27:26.996Z,37
2018-08-14T07:30:26.960Z,33
2018-08-14T07:33:26.851Z,32
2018-08-14T07:36:27.320Z,30
2018-08-14T07:39:26.921Z,30
2018-08-14T07:42:27.067Z,30
2018-08-14T07:45:26.994Z,27
2018-08-14T07:48:26.992Z,28
2018-08-14T07:51:27.430Z,33
2018-08-14T07:54:27.054Z,32
2018-08-14T07:57:27.101Z,30
2018-08-14T08:00:27.095Z,27
2018-08-14T08:03:27.108Z,32
2018-08-14T08:06:27.258Z,28
2018-08-14T08:09:27.238Z,30
2018-08-14T08:12:27.233Z,32
2018-08-14T08:15:27.214Z,29
2018-08-14T08:18:27.357Z,24
2018-08-14T08:21:27.379Z,23
2018-08-14T08:24:27.487Z,21
2018-08-14T08:27:27.386Z,21
2018-08-14T08:30:27.590Z,20
2018-08-14T08:33:27.393Z,28
2018-08-14T08:36:27.425Z,27
2018-08-14T08:39:27.559Z,31
2018-08-14T08:42:27.498Z,24
2018-08-14T08:45:27.528Z,22
2018-08-14T08:48:27.651Z,20
2018-08-14T08:51:27.655Z,25
2018-08-14T08:54:27.592Z,28
2018-08-14T08:57:27.679Z,29
2018-08-14T09:00:27.671Z,26
2018-08-14T09:03:27.864Z,29
2018-08-14T09:06:27.786Z,21
2018-08-14T09:09:28.014Z,23
2018-08-14T09:12:28.309Z,20
2018-08-14T09:15:28.361Z,18
2018-08-14T09:18:27.844Z,20
2018-08-14T09:21:28.078Z,18
2018-08-14T09:24:27.956Z,17
2018-08-14T09:27:28.098Z,20
2018-08-14T09:30:28.112Z,20
2018-08-14T09:33:28.225Z,16
2018-08-14T09:36:28.074Z,22
2018-08-14T09:39:28.225Z,25
2018-08-14T09:42:28.277Z,29
2018-08-14T09:45:28.300Z,19
2018-08-14T09:48:28.181Z,26
2018-08-14T09:51:28.222Z,26
2018-08-14T09:54:28.329Z,18
2018-08-14T09:57:28.281Z,16
2018-08-14T10:00:28.385Z,17
2018-08-14T10:03:28.365Z,16
2018-08-14T10:06:28.391Z,22
2018-08-14T10:09:28.556Z,25
2018-08-14T10:12:28.556Z,27
2018-08-14T10:15:28.455Z,19
2018-08-14T10:18:28.579Z,17
2018-08-14T10:21:28.737Z,22
2018-08-14T10:24:28.578Z,26
2018-08-14T10:27:28.780Z,20
2018-08-14T10:30:29.100Z,14
2018-08-14T10:33:28.832Z,16
2018-08-14T10:36:28.831Z,25
2018-08-14T10:39:28.816Z,28
2018-08-14T10:42:28.809Z,31
2018-08-14T10:45:28.917Z,18
2018-08-14T10:48:29.039Z,25
2018-08-14T10:51:28.958Z,21
2018-08-14T10:54:28.865Z,26
2018-08-14T10:57:29.059Z,27
2018-08-14T11:00:28.894Z,22
2018-08-14T11:03:29.063Z,17
2018-08-14T11:06:29.273Z,16
2018-08-14T11:09:29.122Z,23
2018-08-14T11:12:29.302Z,26
2018-08-14T11:15:29.190Z,29
2018-08-14T11:18:29.231Z,26
2018-08-14T11:21:29.269Z,20
2018-08-14T11:24:29.148Z,18
2018-08-14T11:27:29.850Z,23
2018-08-14T11:30:29.275Z,26
2018-08-14T11:33:29.711Z,18
2018-08-14T11:36:29.505Z,18
2018-08-14T11:39:29.357Z,17
2018-08-14T11:42:29.951Z,21
2018-08-14T11:45:29.379Z,25
2018-08-14T11:48:29.437Z,19
2018-08-14T11:51:29.437Z,25
2018-08-14T11:54:29.484Z,25
2018-08-14T11:57:29.734Z,27
2018-08-14T12:00:29.515Z,29
2018-08-14T12:03:29.556Z,29
2018-08-14T12:06:29.604Z,28
2018-08-14T12:09:29.724Z,31
2018-08-14T12:12:31.376Z,32
2018-08-14T12:15:29.637Z,33
2018-08-14T12:18:29.832Z,34
2018-08-14T12:21:29.777Z,34
2018-08-14T12:24:29.727Z,29
2018-08-14T12:27:29.740Z,33
2018-08-14T12:30:30.156Z,34
2018-08-14T12:33:29.779Z,35
2018-08-14T12:36:29.758Z,36
2018-08-14T12:39:29.800Z,37
2018-08-14T12:42:29.816Z,39
2018-08-14T12:45:29.963Z,39
2018-08-14T12:48:30.072Z,40
2018-08-14T12:51:29.886Z,41
2018-08-14T12:54:29.887Z,41
2018-08-14T12:57:30.331Z,41
2018-08-14T13:00:29.911Z,38
2018-08-14T13:03:30.080Z,39
2018-08-14T13:06:29.988Z,39
2018-08-14T13:09:29.991Z,39
2018-08-14T13:12:30.438Z,34
2018-08-14T13:15:30.043Z,27
2018-08-14T13:18:30.177Z,19
2018-08-14T13:21:30.221Z,17
2018-08-14T13:24:30.160Z,16
2018-08-14T13:27:30.191Z,17
2018-08-14T13:30:30.244Z,19
2018-08-14T13:33:30.715Z,23
2018-08-14T13:36:30.301Z,25
2018-08-14T13:39:30.334Z,27
2018-08-14T13:42:30.344Z,26
2018-08-14T13:45:30.815Z,28
2018-08-14T13:48:30.427Z,29
2018-08-14T13:51:30.440Z,29
2018-08-14T13:54:30.438Z,31
2018-08-14T13:57:30.474Z,28
2018-08-14T14:00:30.502Z,29
2018-08-14T14:03:30.632Z,30
2018-08-14T14:06:30.670Z,31
2018-08-14T14:09:30.545Z,33
2018-08-14T14:12:30.602Z,31
2018-08-14T14:15:30.615Z,30
2018-08-14T14:18:30.667Z,27
2018-08-14T14:21:30.693Z,20
2018-08-14T14:24:30.705Z,19
2018-08-14T14:27:30.767Z,17
2018-08-14T14:30:30.801Z,17
2018-08-14T14:33:30.834Z,16
2018-08-14T14:36:30.864Z,17
2018-08-14T14:39:31.342Z,17
2018-08-14T14:42:31.051Z,16
2018-08-14T14:45:30.980Z,17
2018-08-14T14:48:31.034Z,16
2018-08-14T14:51:31.047Z,16
2018-08-14T14:54:31.090Z,19
2018-08-14T14:57:31.114Z,23
2018-08-14T15:00:31.132Z,24
2018-08-14T15:03:31.605Z,25
2018-08-14T15:06:31.180Z,28
2018-08-14T15:09:31.196Z,28
2018-08-14T15:12:31.228Z,29
2018-08-14T15:15:31.244Z,30
2018-08-14T15:18:31.405Z,31
2018-08-14T15:21:31.318Z,32
2018-08-14T15:24:31.309Z,32
2018-08-14T15:27:31.340Z,32
2018-08-14T15:30:31.371Z,32
2018-08-14T15:33:31.416Z,33
2018-08-14T15:36:31.511Z,33
2018-08-14T15:39:31.432Z,34
2018-08-14T15:42:31.432Z,35
2018-08-14T15:45:31.546Z,35
2018-08-14T15:48:31.502Z,36
2018-08-14T15:51:31.683Z,38
2018-08-14T15:54:31.969Z,39
2018-08-14T15:57:31.552Z,39
2018-08-14T16:24:31.675Z,45
2018-08-14T16:27:31.794Z,45
2018-08-14T16:33:31.702Z,46
2018-08-14T16:36:31.720Z,48
2018-08-14T16:39:31.856Z,49
2018-08-14T16:42:31.765Z,49
2018-08-14T16:57:31.840Z,51
2018-08-14T17:00:31.868Z,52
2018-08-14T17:03:31.866Z,52
2018-08-14T17:06:31.899Z,52
2018-08-14T17:09:31.883Z,52
2018-08-14T17:12:31.938Z,52
2018-08-14T17:15:31.929Z,52
2018-08-14T17:18:31.956Z,53
2018-08-14T17:21:31.939Z,53
2018-08-14T17:24:31.971Z,53
